Huaquan222 — BSOX — position and weather

sailwx.info

Track history (hours):
 
Tides and Currents Weather Stations Pressure Air Temp Water Temp Dewpoint Dewpoint Depression Visibility Wind Speed Wind Dir Waves Ship Positions

Huaquan222

Last reported at 2014-Aug-28 02:33 UTC. Time now 2014-Aug-28 03:25 UTC.
Position N 22°17' E 113°49'.

Length 67 m; draft 2.1 m.

Type: Dredging. MMSI: 413467440.

Date/timePositionNaut miles runAvg speedWind from/ knotsBaromVisibWave heightAir tempDewpointWater temp
2014-Aug-28 02:33N 22°17' E 113°49'0 0.0
2014-Aug-28 01:33N 22°17' E 113°49'0 0.0
2014-Aug-28 00:33N 22°17' E 113°49'0 0.0
2014-Aug-27 22:32N 22°17' E 113°49'0 0.1
2014-Aug-27 21:19N 22°17' E 113°49'0 0.0
2014-Aug-27 20:32N 22°17' E 113°49'0 0.0
2014-Aug-27 19:33N 22°17' E 113°49'0 0.0
2014-Aug-27 18:31N 22°17' E 113°49'0 0.1
2014-Aug-27 17:33N 22°17' E 113°49'0 0.0
2014-Aug-27 16:32N 22°17' E 113°49'0 0.0
2014-Aug-27 15:33N 22°17' E 113°49'2 2.0
2014-Aug-27 14:33N 22°15' E 113°49'6 5.5
2014-Aug-27 13:33N 22°12' E 113°44'5 4.6
2014-Aug-27 12:33N 22°08' E 113°41'5 4.7
2014-Aug-27 11:33N 22°04' E 113°39'4 3.8
2014-Aug-27 10:30N 22°00' E 113°38'4 4.4
2014-Aug-27 09:29N 21°56' E 113°37'1 0.3
2014-Aug-27 07:33N 21°55' E 113°37'6 6.2
2014-Aug-27 06:33N 22°01' E 113°39'1717.7
2014-Aug-27 05:33N 22°16' E 113°48'6 5.7
2014-Aug-27 04:33N 22°12' E 113°44'5 5.0
2014-Aug-27 03:33N 22°16' E 113°48'2 2.0
2014-Aug-27 02:31N 22°17' E 113°49'0 0.4
2014-Aug-27 01:33N 22°17' E 113°49'0 0.0
2014-Aug-27 00:32N 22°17' E 113°49'0 0.0
2014-Aug-26 23:33N 22°17' E 113°49'0 0.1
2014-Aug-26 22:33N 22°17' E 113°49'0 0.0
2014-Aug-26 09:31N 22°17' E 113°49'0 0.0
2014-Aug-26 08:33N 22°17' E 113°49'0 0.0
2014-Aug-26 07:33N 22°17' E 113°49'0 0.2
2014-Aug-26 06:33N 22°17' E 113°49'1 1.2
2014-Aug-26 05:22N 22°16' E 113°48'1 1.5
2014-Aug-26 04:33N 22°17' E 113°49'0 0.0
2014-Aug-26 03:34N 22°17' E 113°49'0 0.3
2014-Aug-26 02:33N 22°17' E 113°49'0 0.0
2014-Aug-26 01:31N 22°17' E 113°49'1 0.5
2014-Aug-26 00:32N 22°17' E 113°49'0 0.1
2014-Aug-25 23:33N 22°17' E 113°49'0 0.2
2014-Aug-25 22:33N 22°17' E 113°49'0 0.0
2014-Aug-25 10:33N 22°17' E 113°49'0 0.1
2014-Aug-25 09:33N 22°17' E 113°49'1 0.2
2014-Aug-25 04:11N 22°16' E 113°49'1 0.5
2014-Aug-25 02:32N 22°17' E 113°49'0 0.0
2014-Aug-25 01:32N 22°17' E 113°49'0 0.0
2014-Aug-25 00:33N 22°17' E 113°49'0 0.0
2014-Aug-24 23:33N 22°17' E 113°49'0 0.0
2014-Aug-24 11:33N 22°17' E 113°49'0 0.1
2014-Aug-24 10:33N 22°17' E 113°49'0 0.1
2014-Aug-24 09:32N 22°17' E 113°49'0 0.0
2014-Aug-24 08:33N 22°17' E 113°49'0 0.0
2014-Aug-24 07:33N 22°17' E 113°49'0 0.3
2014-Aug-24 06:33N 22°17' E 113°49'0 0.0
2014-Aug-24 05:33N 22°17' E 113°49'0 0.2
2014-Aug-24 04:33N 22°17' E 113°49'1 0.6
2014-Aug-24 03:33N 22°17' E 113°49'1 1.4
2014-Aug-24 02:33N 22°16' E 113°48'2 1.7
2014-Aug-24 01:32N 22°17' E 113°49'0 0.1
2014-Aug-24 00:33N 22°17' E 113°49'0 0.0
2014-Aug-23 23:33N 22°17' E 113°49'0 0.0
2014-Aug-23 22:33N 22°17' E 113°49'0 0.0
2014-Aug-23 03:33N 22°17' E 113°49'0 0.1
2014-Aug-23 02:33N 22°17' E 113°49'0 0.0
2014-Aug-23 01:33N 22°17' E 113°49'0 0.0
2014-Aug-22 13:31N 22°17' E 113°49'0 0.0
2014-Aug-22 12:34N 22°17' E 113°49'0 0.0
2014-Aug-22 11:34N 22°17' E 113°49'0 0.4
2014-Aug-22 10:34N 22°17' E 113°49'0 0.0
2014-Aug-22 09:33N 22°17' E 113°49'2 1.3
2014-Aug-22 08:10N 22°16' E 113°48'1 2.4
2014-Aug-22 07:32N 22°17' E 113°49'0 0.0
2014-Aug-22 06:33N 22°17' E 113°49'0 0.1
2014-Aug-22 05:33N 22°17' E 113°49'0 0.2
2014-Aug-22 04:33N 22°17' E 113°49'0 0.0
2014-Aug-22 03:33N 22°17' E 113°49'0 0.1
2014-Aug-22 02:33N 22°17' E 113°49'0 0.0
2014-Aug-22 01:33N 22°17' E 113°49'0 0.0
2014-Aug-22 00:33N 22°17' E 113°49'0 0.0
2014-Aug-21 11:10N 22°17' E 113°49'0 0.0
2014-Aug-21 10:33N 22°17' E 113°49'0 0.0
2014-Aug-21 09:33N 22°17' E 113°49'0 0.4
2014-Aug-21 08:33N 22°17' E 113°49'0 0.0
2014-Aug-21 07:33N 22°17' E 113°49'0 0.1
2014-Aug-21 06:33N 22°17' E 113°49'2 1.7
2014-Aug-21 05:26N 22°16' E 113°48'2 1.9
2014-Aug-21 04:32N 22°17' E 113°49'0 0.0
2014-Aug-21 03:33N 22°17' E 113°49'0 0.0
2014-Aug-21 02:33N 22°17' E 113°49'0 0.2
2014-Aug-21 01:32N 22°17' E 113°49'0 0.0
2014-Aug-21 00:33N 22°17' E 113°49'0 0.0
2014-Aug-20 11:07N 22°17' E 113°49'0 0.0
2014-Aug-20 10:33N 22°17' E 113°49'0 0.2
2014-Aug-20 09:33N 22°17' E 113°49'0 0.1
2014-Aug-20 08:33N 22°17' E 113°49'0 0.0
2014-Aug-20 07:34N 22°17' E 113°49'1 0.6
2014-Aug-20 06:33N 22°17' E 113°49'1 1.2
2014-Aug-20 05:26N 22°16' E 113°48'1 1.7
2014-Aug-20 04:33N 22°17' E 113°49'0 0.0
2014-Aug-20 03:33N 22°17' E 113°49'0 0.0
2014-Aug-20 02:33N 22°17' E 113°49'0 0.0
2014-Aug-20 01:33N 22°17' E 113°49'0 0.3
2014-Aug-20 00:32N 22°17' E 113°49'0 0.0
2014-Aug-19 23:33N 22°17' E 113°49'0 0.0
2014-Aug-19 15:30N 22°17' E 113°49'0 0.0
2014-Aug-19 14:33N 22°17' E 113°49'0 0.0
2014-Aug-19 13:33N 22°17' E 113°49'0 0.4
2014-Aug-19 12:31N 22°17' E 113°50'0 0.0
2014-Aug-19 11:33N 22°17' E 113°50'0 0.0
2014-Aug-19 10:33N 22°17' E 113°50'0 0.0
2014-Aug-19 09:32N 22°17' E 113°50'0 0.1
2014-Aug-19 08:33N 22°17' E 113°49'0 0.0
2014-Aug-18 10:10N 22°17' E 113°49'0 0.1
2014-Aug-18 09:33N 22°17' E 113°49'0 0.0
2014-Aug-18 08:32N 22°17' E 113°49'0 0.3
2014-Aug-18 07:32N 22°17' E 113°49'0 0.0
2014-Aug-18 06:33N 22°17' E 113°49'1 0.8
2014-Aug-18 05:33N 22°17' E 113°49'0 0.5
2014-Aug-18 04:34N 22°16' E 113°49'1 0.9
2014-Aug-18 03:34N 22°17' E 113°49'0 0.1
2014-Aug-18 02:34N 22°17' E 113°49'  
Track history (hours):
 
Tides and Currents Weather Stations Pressure Air Temp Water Temp Dewpoint Dewpoint Depression Visibility Wind Speed Wind Dir Waves Ship Positions

Huaquan222

Last reported at 2014-Aug-28 02:33 UTC. Time now 2014-Aug-28 03:25 UTC.
Position N 22°17' E 113°49'.

Length 67 m; draft 2.1 m.

Type: Dredging. MMSI: 413467440.

Date/timePositionNaut miles runAvg speedWind from/ knotsBaromVisibWave heightAir tempDewpointWater temp
2014-Aug-28 02:33N 22°17' E 113°49'0 0.0
2014-Aug-28 01:33N 22°17' E 113°49'0 0.0
2014-Aug-28 00:33N 22°17' E 113°49'0 0.0
2014-Aug-27 22:32N 22°17' E 113°49'0 0.1
2014-Aug-27 21:19N 22°17' E 113°49'0 0.0
2014-Aug-27 20:32N 22°17' E 113°49'0 0.0
2014-Aug-27 19:33N 22°17' E 113°49'0 0.0
2014-Aug-27 18:31N 22°17' E 113°49'0 0.1
2014-Aug-27 17:33N 22°17' E 113°49'0 0.0
2014-Aug-27 16:32N 22°17' E 113°49'0 0.0
2014-Aug-27 15:33N 22°17' E 113°49'2 2.0
2014-Aug-27 14:33N 22°15' E 113°49'6 5.5
2014-Aug-27 13:33N 22°12' E 113°44'5 4.6
2014-Aug-27 12:33N 22°08' E 113°41'5 4.7
2014-Aug-27 11:33N 22°04' E 113°39'4 3.8
2014-Aug-27 10:30N 22°00' E 113°38'4 4.4
2014-Aug-27 09:29N 21°56' E 113°37'1 0.3
2014-Aug-27 07:33N 21°55' E 113°37'6 6.2
2014-Aug-27 06:33N 22°01' E 113°39'1717.7
2014-Aug-27 05:33N 22°16' E 113°48'6 5.7
2014-Aug-27 04:33N 22°12' E 113°44'5 5.0
2014-Aug-27 03:33N 22°16' E 113°48'2 2.0
2014-Aug-27 02:31N 22°17' E 113°49'0 0.4
2014-Aug-27 01:33N 22°17' E 113°49'0 0.0
2014-Aug-27 00:32N 22°17' E 113°49'0 0.0
2014-Aug-26 23:33N 22°17' E 113°49'0 0.1
2014-Aug-26 22:33N 22°17' E 113°49'0 0.0
2014-Aug-26 09:31N 22°17' E 113°49'0 0.0
2014-Aug-26 08:33N 22°17' E 113°49'0 0.0
2014-Aug-26 07:33N 22°17' E 113°49'0 0.2
2014-Aug-26 06:33N 22°17' E 113°49'1 1.2
2014-Aug-26 05:22N 22°16' E 113°48'1 1.5
2014-Aug-26 04:33N 22°17' E 113°49'0 0.0
2014-Aug-26 03:34N 22°17' E 113°49'0 0.3
2014-Aug-26 02:33N 22°17' E 113°49'0 0.0
2014-Aug-26 01:31N 22°17' E 113°49'1 0.5
2014-Aug-26 00:32N 22°17' E 113°49'0 0.1
2014-Aug-25 23:33N 22°17' E 113°49'0 0.2
2014-Aug-25 22:33N 22°17' E 113°49'0 0.0
2014-Aug-25 10:33N 22°17' E 113°49'0 0.1
2014-Aug-25 09:33N 22°17' E 113°49'1 0.2
2014-Aug-25 04:11N 22°16' E 113°49'1 0.5
2014-Aug-25 02:32N 22°17' E 113°49'0 0.0
2014-Aug-25 01:32N 22°17' E 113°49'0 0.0
2014-Aug-25 00:33N 22°17' E 113°49'0 0.0
2014-Aug-24 23:33N 22°17' E 113°49'0 0.0
2014-Aug-24 11:33N 22°17' E 113°49'0 0.1
2014-Aug-24 10:33N 22°17' E 113°49'0 0.1
2014-Aug-24 09:32N 22°17' E 113°49'0 0.0
2014-Aug-24 08:33N 22°17' E 113°49'0 0.0
2014-Aug-24 07:33N 22°17' E 113°49'0 0.3
2014-Aug-24 06:33N 22°17' E 113°49'0 0.0
2014-Aug-24 05:33N 22°17' E 113°49'0 0.2
2014-Aug-24 04:33N 22°17' E 113°49'1 0.6
2014-Aug-24 03:33N 22°17' E 113°49'1 1.4
2014-Aug-24 02:33N 22°16' E 113°48'2 1.7
2014-Aug-24 01:32N 22°17' E 113°49'0 0.1
2014-Aug-24 00:33N 22°17' E 113°49'0 0.0
2014-Aug-23 23:33N 22°17' E 113°49'0 0.0
2014-Aug-23 22:33N 22°17' E 113°49'0 0.0
2014-Aug-23 03:33N 22°17' E 113°49'0 0.1
2014-Aug-23 02:33N 22°17' E 113°49'0 0.0
2014-Aug-23 01:33N 22°17' E 113°49'0 0.0
2014-Aug-22 13:31N 22°17' E 113°49'0 0.0
2014-Aug-22 12:34N 22°17' E 113°49'0 0.0
2014-Aug-22 11:34N 22°17' E 113°49'0 0.4
2014-Aug-22 10:34N 22°17' E 113°49'0 0.0
2014-Aug-22 09:33N 22°17' E 113°49'2 1.3
2014-Aug-22 08:10N 22°16' E 113°48'1 2.4
2014-Aug-22 07:32N 22°17' E 113°49'0 0.0
2014-Aug-22 06:33N 22°17' E 113°49'0 0.1
2014-Aug-22 05:33N 22°17' E 113°49'0 0.2
2014-Aug-22 04:33N 22°17' E 113°49'0 0.0
2014-Aug-22 03:33N 22°17' E 113°49'0 0.1
2014-Aug-22 02:33N 22°17' E 113°49'0 0.0
2014-Aug-22 01:33N 22°17' E 113°49'0 0.0
2014-Aug-22 00:33N 22°17' E 113°49'0 0.0
2014-Aug-21 11:10N 22°17' E 113°49'0 0.0
2014-Aug-21 10:33N 22°17' E 113°49'0 0.0
2014-Aug-21 09:33N 22°17' E 113°49'0 0.4
2014-Aug-21 08:33N 22°17' E 113°49'0 0.0
2014-Aug-21 07:33N 22°17' E 113°49'0 0.1
2014-Aug-21 06:33N 22°17' E 113°49'2 1.7
2014-Aug-21 05:26N 22°16' E 113°48'2 1.9
2014-Aug-21 04:32N 22°17' E 113°49'0 0.0
2014-Aug-21 03:33N 22°17' E 113°49'0 0.0
2014-Aug-21 02:33N 22°17' E 113°49'0 0.2
2014-Aug-21 01:32N 22°17' E 113°49'0 0.0
2014-Aug-21 00:33N 22°17' E 113°49'0 0.0
2014-Aug-20 11:07N 22°17' E 113°49'0 0.0
2014-Aug-20 10:33N 22°17' E 113°49'0 0.2
2014-Aug-20 09:33N 22°17' E 113°49'0 0.1
2014-Aug-20 08:33N 22°17' E 113°49'0 0.0
2014-Aug-20 07:34N 22°17' E 113°49'1 0.6
2014-Aug-20 06:33N 22°17' E 113°49'1 1.2
2014-Aug-20 05:26N 22°16' E 113°48'1 1.7
2014-Aug-20 04:33N 22°17' E 113°49'0 0.0
2014-Aug-20 03:33N 22°17' E 113°49'0 0.0
2014-Aug-20 02:33N 22°17' E 113°49'0 0.0
2014-Aug-20 01:33N 22°17' E 113°49'0 0.3
2014-Aug-20 00:32N 22°17' E 113°49'0 0.0
2014-Aug-19 23:33N 22°17' E 113°49'0 0.0
2014-Aug-19 15:30N 22°17' E 113°49'0 0.0
2014-Aug-19 14:33N 22°17' E 113°49'0 0.0
2014-Aug-19 13:33N 22°17' E 113°49'0 0.4
2014-Aug-19 12:31N 22°17' E 113°50'0 0.0
2014-Aug-19 11:33N 22°17' E 113°50'0 0.0
2014-Aug-19 10:33N 22°17' E 113°50'0 0.0
2014-Aug-19 09:32N 22°17' E 113°50'0 0.1
2014-Aug-19 08:33N 22°17' E 113°49'0 0.0
2014-Aug-18 10:10N 22°17' E 113°49'0 0.1
2014-Aug-18 09:33N 22°17' E 113°49'0 0.0
2014-Aug-18 08:32N 22°17' E 113°49'0 0.3
2014-Aug-18 07:32N 22°17' E 113°49'0 0.0
2014-Aug-18 06:33N 22°17' E 113°49'1 0.8
2014-Aug-18 05:33N 22°17' E 113°49'0 0.5
2014-Aug-18 04:34N 22°16' E 113°49'1 0.9
2014-Aug-18 03:34N 22°17' E 113°49'0 0.1
2014-Aug-18 02:34N 22°17' E 113°49'  

Dump ship's entire track history